createdAt,value
2022-12-14T00:01:48.881Z,19.40
2022-12-14T00:04:16.538Z,16.37
2022-12-14T00:06:43.304Z,19.47
2022-12-14T00:09:10.262Z,21.17
2022-12-14T00:11:37.046Z,17.47
2022-12-14T00:14:04.739Z,18.83
2022-12-14T00:16:34.030Z,20.47
2022-12-14T00:19:01.565Z,17.93
2022-12-14T00:21:28.897Z,19.33
2022-12-14T00:23:57.869Z,22.00
2022-12-14T00:26:27.040Z,19.73
2022-12-14T00:28:56.742Z,22.70
2022-12-14T00:31:24.556Z,17.63
2022-12-14T00:33:52.198Z,22.10
2022-12-14T00:36:19.333Z,20.40
2022-12-14T00:38:46.184Z,20.83
2022-12-14T00:41:13.028Z,20.73
2022-12-14T00:43:40.265Z,24.53
2022-12-14T00:46:07.722Z,16.80
2022-12-14T00:48:34.645Z,19.20
2022-12-14T00:51:01.611Z,19.97
2022-12-14T00:53:28.427Z,22.23
2022-12-14T00:55:55.195Z,20.03
2022-12-14T00:58:24.094Z,18.27
2022-12-14T01:01:03.644Z,18.23
2022-12-14T01:03:31.447Z,16.63
2022-12-14T01:05:58.566Z,18.67
2022-12-14T01:08:25.489Z,20.57
2022-12-14T01:10:52.906Z,24.53
2022-12-14T01:13:19.726Z,19.80
2022-12-14T01:15:46.925Z,18.07
2022-12-14T01:18:13.786Z,19.27
2022-12-14T01:20:40.542Z,18.27
2022-12-14T01:23:07.219Z,19.93
2022-12-14T01:25:34.413Z,19.90
2022-12-14T01:28:01.174Z,16.87
2022-12-14T01:30:27.964Z,18.33
2022-12-14T01:32:54.935Z,17.70
2022-12-14T01:35:24.346Z,17.30
2022-12-14T01:37:51.075Z,17.97
2022-12-14T01:40:17.956Z,17.77
2022-12-14T01:42:44.756Z,18.60
2022-12-14T01:45:21.537Z,17.57
2022-12-14T01:47:55.983Z,17.80
2022-12-14T01:50:32.149Z,16.87
2022-12-14T01:53:21.074Z,16.60
2022-12-14T01:55:52.126Z,15.97
2022-12-14T01:58:24.339Z,17.67
2022-12-14T02:00:55.639Z,18.80
2022-12-14T02:03:30.993Z,18.40
2022-12-14T02:06:02.599Z,15.97
2022-12-14T02:08:34.955Z,16.17
2022-12-14T02:11:03.037Z,16.63
2022-12-14T02:13:38.638Z,16.70
2022-12-14T02:16:05.969Z,15.37
2022-12-14T02:18:34.390Z,15.37
2022-12-14T02:21:13.267Z,18.83
2022-12-14T02:24:14.362Z,12.90
2022-12-14T02:26:52.346Z,16.17
2022-12-14T02:29:36.382Z,17.50
2022-12-14T02:32:15.006Z,14.13
2022-12-14T02:34:59.852Z,17.50
2022-12-14T02:37:46.052Z,16.33
2022-12-14T02:40:43.919Z,13.97
2022-12-14T02:43:28.103Z,15.83
2022-12-14T02:46:25.154Z,14.60
2022-12-14T02:49:14.108Z,16.40
2022-12-14T02:52:31.978Z,18.23
2022-12-14T02:55:05.525Z,14.57
2022-12-14T02:57:50.927Z,13.63
2022-12-14T03:00:19.491Z,16.40
2022-12-14T03:02:48.722Z,19.17
2022-12-14T03:05:15.926Z,16.23
2022-12-14T03:07:49.323Z,17.57
2022-12-14T03:10:25.240Z,18.83
2022-12-14T03:12:59.796Z,15.07
2022-12-14T03:15:28.484Z,17.47
2022-12-14T03:18:00.300Z,15.27
2022-12-14T03:20:31.015Z,17.50
2022-12-14T03:23:00.476Z,16.57
2022-12-14T03:25:37.188Z,17.90
2022-12-14T03:28:16.612Z,16.90
2022-12-14T03:31:03.768Z,18.00
2022-12-14T03:33:35.588Z,13.67
2022-12-14T03:36:11.447Z,16.10
2022-12-14T03:38:42.886Z,13.57
2022-12-14T03:41:33.395Z,19.27
2022-12-14T03:44:32.541Z,16.43
2022-12-14T03:47:18.725Z,15.47
2022-12-14T03:50:12.854Z,14.70
2022-12-14T03:52:57.727Z,16.77
2022-12-14T03:55:40.340Z,17.60
2022-12-14T03:58:26.727Z,15.23
2022-12-14T04:01:21.308Z,15.53
2022-12-14T04:04:03.660Z,15.83
2022-12-14T04:07:00.186Z,12.83
2022-12-14T04:09:52.796Z,14.17
2022-12-14T04:12:52.067Z,15.23
2022-12-14T04:15:52.938Z,16.43
2022-12-14T04:18:47.588Z,15.13
2022-12-14T04:21:24.642Z,11.20
2022-12-14T04:24:16.037Z,18.73
2022-12-14T04:26:57.630Z,17.90
2022-12-14T04:29:47.612Z,15.50
2022-12-14T04:32:27.940Z,13.23
2022-12-14T04:35:04.220Z,15.80
2022-12-14T04:37:34.148Z,15.77
2022-12-14T04:40:27.536Z,18.97
2022-12-14T04:43:01.314Z,17.50
2022-12-14T04:45:34.478Z,18.23
2022-12-14T04:48:29.598Z,15.33
2022-12-14T04:51:03.938Z,17.27
2022-12-14T04:53:33.214Z,12.80
2022-12-14T04:56:09.629Z,17.47
2022-12-14T04:58:40.450Z,18.13
2022-12-14T05:01:15.809Z,15.67
2022-12-14T05:03:59.069Z,16.40
2022-12-14T05:06:50.243Z,15.07
2022-12-14T05:09:24.314Z,14.30
2022-12-14T05:12:15.133Z,14.63
2022-12-14T05:14:49.171Z,16.63
2022-12-14T05:17:17.000Z,14.07
2022-12-14T05:19:48.842Z,14.20
2022-12-14T05:22:16.862Z,13.50
2022-12-14T05:24:46.573Z,16.43
2022-12-14T05:27:13.574Z,14.47
2022-12-14T05:29:40.612Z,16.73
2022-12-14T05:32:11.058Z,15.87
2022-12-14T05:34:37.886Z,17.87
2022-12-14T05:37:04.730Z,15.70
2022-12-14T05:39:31.697Z,16.07
2022-12-14T05:41:58.407Z,17.47
2022-12-14T05:44:25.573Z,15.90
2022-12-14T05:46:52.371Z,12.97
2022-12-14T05:49:19.088Z,15.13
2022-12-14T05:51:48.146Z,15.13
2022-12-14T05:54:15.297Z,15.40
2022-12-14T05:56:42.177Z,15.70
2022-12-14T05:59:09.122Z,20.83
2022-12-14T06:01:35.916Z,20.17
2022-12-14T06:04:02.761Z,15.93
2022-12-14T06:06:29.608Z,17.00
2022-12-14T06:08:56.369Z,17.03
2022-12-14T06:11:23.878Z,14.77
2022-12-14T06:13:51.318Z,18.27
2022-12-14T06:16:23.306Z,16.23
2022-12-14T06:18:57.468Z,15.90
2022-12-14T06:21:27.097Z,15.97
2022-12-14T06:23:55.151Z,16.77
2022-12-14T06:26:23.310Z,19.70
2022-12-14T06:28:50.363Z,18.77
2022-12-14T06:31:20.433Z,16.20
2022-12-14T06:33:47.577Z,18.13
2022-12-14T06:36:29.341Z,18.47
2022-12-14T06:38:57.725Z,16.70
2022-12-14T06:41:24.824Z,14.93
2022-12-14T06:43:53.733Z,18.73
2022-12-14T06:46:22.769Z,16.80
2022-12-14T06:48:51.110Z,14.67
2022-12-14T06:51:17.930Z,19.23
2022-12-14T06:53:45.097Z,17.17
2022-12-14T06:56:14.514Z,18.70
2022-12-14T06:58:41.688Z,14.70
2022-12-14T07:01:13.446Z,16.30
2022-12-14T07:03:42.932Z,13.13
2022-12-14T07:06:10.496Z,18.73
2022-12-14T07:08:38.940Z,16.60
2022-12-14T07:11:11.863Z,19.50
2022-12-14T07:13:39.183Z,16.40
2022-12-14T07:16:07.258Z,17.20
2022-12-14T07:18:34.739Z,14.67
2022-12-14T07:21:04.301Z,17.70
2022-12-14T07:23:32.750Z,15.67
2022-12-14T07:26:08.016Z,14.80
2022-12-14T07:28:37.108Z,15.93
2022-12-14T07:31:06.110Z,12.20
2022-12-14T07:33:33.141Z,13.97
2022-12-14T07:36:10.172Z,15.63
2022-12-14T07:38:38.429Z,16.33
2022-12-14T07:41:32.418Z,12.87
2022-12-14T07:44:00.800Z,17.77
2022-12-14T07:46:29.381Z,13.83
2022-12-14T07:48:57.751Z,22.33
2022-12-14T07:51:30.358Z,15.30
2022-12-14T07:53:57.809Z,13.67
2022-12-14T07:56:29.530Z,19.90
2022-12-14T07:58:57.725Z,17.73
2022-12-14T08:01:27.260Z,14.73
2022-12-14T08:03:59.407Z,14.97
2022-12-14T08:06:28.985Z,15.30
2022-12-14T08:08:56.259Z,14.17
2022-12-14T08:11:23.544Z,13.20
2022-12-14T08:13:58.323Z,14.30
2022-12-14T08:16:26.123Z,13.63
2022-12-14T08:18:55.162Z,14.63
2022-12-14T08:21:22.835Z,13.90
2022-12-14T08:23:50.809Z,13.23
2022-12-14T08:26:18.247Z,12.40
2022-12-14T08:28:45.872Z,13.67
2022-12-14T08:31:16.917Z,13.07
2022-12-14T08:33:44.829Z,17.50
2022-12-14T08:36:13.909Z,12.17
2022-12-14T08:38:41.990Z,12.73
2022-12-14T08:41:12.343Z,14.50
2022-12-14T08:43:40.529Z,14.03
2022-12-14T08:46:09.129Z,13.87
2022-12-14T08:48:38.729Z,13.90
2022-12-14T08:51:08.290Z,11.93
2022-12-14T08:53:36.455Z,13.23
2022-12-14T08:56:11.234Z,18.87
2022-12-14T08:58:39.576Z,14.70
2022-12-14T09:01:34.311Z,13.60
2022-12-14T09:04:06.394Z,13.63
2022-12-14T09:06:35.719Z,14.33
2022-12-14T09:09:03.600Z,13.67
2022-12-14T09:11:30.417Z,13.70
2022-12-14T09:13:57.230Z,14.10
2022-12-14T09:16:26.335Z,15.17
2022-12-14T09:18:53.740Z,16.53
2022-12-14T09:21:21.259Z,17.27
2022-12-14T09:23:52.633Z,18.00
2022-12-14T09:26:25.148Z,17.60
2022-12-14T09:28:54.473Z,16.17
2022-12-14T09:31:23.607Z,17.53
2022-12-14T09:33:50.825Z,15.10
2022-12-14T09:36:23.736Z,15.10
2022-12-14T09:38:52.403Z,15.30
2022-12-14T09:41:25.260Z,16.33
2022-12-14T09:44:18.090Z,14.20
2022-12-14T09:47:17.601Z,16.07
2022-12-14T09:49:58.705Z,18.97
2022-12-14T09:52:40.875Z,18.57
2022-12-14T09:55:37.296Z,15.60
2022-12-14T09:58:20.786Z,17.43
2022-12-14T10:01:06.634Z,15.97
2022-12-14T10:03:33.921Z,20.90
2022-12-14T10:06:31.965Z,16.10
2022-12-14T10:09:05.029Z,14.83
2022-12-14T10:11:55.458Z,17.63
2022-12-14T10:14:42.673Z,14.67
2022-12-14T10:17:26.840Z,16.03
2022-12-14T10:19:56.072Z,21.03
2022-12-14T10:22:32.395Z,15.90
2022-12-14T10:25:26.852Z,18.77
2022-12-14T10:28:11.789Z,22.23
2022-12-14T10:30:44.304Z,16.07
2022-12-14T10:33:31.629Z,19.57
2022-12-14T10:36:28.756Z,15.00
2022-12-14T10:39:01.824Z,16.23
2022-12-14T10:41:49.557Z,20.03
2022-12-14T10:44:30.860Z,15.83
2022-12-14T10:47:23.058Z,15.37
2022-12-14T10:50:18.996Z,16.13
2022-12-14T10:52:48.842Z,15.63
2022-12-14T10:55:22.861Z,15.17
2022-12-14T10:57:49.582Z,15.87
2022-12-14T11:00:23.226Z,14.80
2022-12-14T11:02:56.754Z,14.27
2022-12-14T11:05:35.733Z,15.43
2022-12-14T11:08:07.540Z,15.03
2022-12-14T11:10:36.241Z,17.97
2022-12-14T11:13:06.921Z,14.60
2022-12-14T11:15:37.865Z,15.13
2022-12-14T11:18:16.628Z,14.30
2022-12-14T11:20:51.219Z,18.40
2022-12-14T11:23:26.040Z,17.27
2022-12-14T11:25:59.187Z,17.20
2022-12-14T11:28:39.635Z,13.00
2022-12-14T11:31:10.462Z,15.67
2022-12-14T11:33:50.584Z,15.93
2022-12-14T11:36:31.064Z,16.23
2022-12-14T11:39:05.389Z,14.60
2022-12-14T11:41:38.459Z,12.70
2022-12-14T11:44:14.246Z,17.10
2022-12-14T11:47:02.234Z,15.43
2022-12-14T11:49:36.273Z,15.40
2022-12-14T11:52:06.105Z,15.80
2022-12-14T11:54:34.584Z,13.20
2022-12-14T11:57:03.325Z,13.20
2022-12-14T11:59:40.968Z,12.37
2022-12-14T12:02:16.947Z,15.03
2022-12-14T12:04:47.071Z,14.90
2022-12-14T12:07:32.970Z,15.37
2022-12-14T12:10:05.773Z,12.83
2022-12-14T12:12:35.759Z,14.60
2022-12-14T12:15:03.453Z,15.87
2022-12-14T12:17:42.224Z,13.37
2022-12-14T12:20:42.949Z,16.17
2022-12-14T12:23:35.455Z,14.90
2022-12-14T12:26:12.036Z,13.10
2022-12-14T12:28:43.887Z,16.70
2022-12-14T12:31:18.729Z,13.13
2022-12-14T12:34:00.633Z,14.60
2022-12-14T12:36:27.434Z,11.53
2022-12-14T12:39:23.826Z,13.10
2022-12-14T12:42:09.572Z,14.43
2022-12-14T12:44:57.690Z,13.03
2022-12-14T12:47:44.448Z,12.00
2022-12-14T12:50:32.255Z,17.83
2022-12-14T12:53:10.432Z,14.63
2022-12-14T12:55:52.811Z,13.90
2022-12-14T12:58:22.483Z,14.37
2022-12-14T13:00:54.677Z,15.10
2022-12-14T13:03:29.634Z,13.67
2022-12-14T13:06:05.127Z,13.23
2022-12-14T13:08:37.082Z,13.10
2022-12-14T13:11:27.810Z,13.70
2022-12-14T13:14:13.652Z,17.60
2022-12-14T13:16:42.271Z,11.93
2022-12-14T13:19:48.690Z,12.10
2022-12-14T13:22:13.385Z,11.17
2022-12-14T13:24:43.414Z,12.67
2022-12-14T13:27:29.025Z,16.53
2022-12-14T13:30:17.861Z,11.20
2022-12-14T13:33:06.351Z,11.00
2022-12-14T13:36:09.738Z,13.30
2022-12-14T13:39:13.028Z,10.87
2022-12-14T13:41:47.117Z,12.00
2022-12-14T13:44:37.454Z,12.00
2022-12-14T13:47:20.494Z,12.47
2022-12-14T13:50:33.777Z,10.57
2022-12-14T13:52:46.813Z,14.10
2022-12-14T13:55:38.419Z,15.27
2022-12-14T13:58:14.001Z,10.60
2022-12-14T14:00:49.240Z,12.90
2022-12-14T14:03:34.733Z,11.00
2022-12-14T14:06:30.936Z,11.70
2022-12-14T14:09:03.018Z,11.43
2022-12-14T14:11:38.090Z,10.37
2022-12-14T14:14:31.828Z,13.47
2022-12-14T14:17:06.668Z,12.03
2022-12-14T14:19:39.614Z,10.37
2022-12-14T14:22:23.256Z,10.43
2022-12-14T14:25:09.442Z,11.93
2022-12-14T14:27:50.568Z,15.33
2022-12-14T14:30:41.155Z,15.03
2022-12-14T14:33:44.934Z,12.50
2022-12-14T14:36:25.136Z,9.97
2022-12-14T14:38:54.273Z,13.53
2022-12-14T14:41:25.787Z,12.00
2022-12-14T14:44:08.504Z,12.23
2022-12-14T14:46:47.335Z,14.57
2022-12-14T14:49:31.057Z,11.13
2022-12-14T14:52:36.343Z,11.80
2022-12-14T14:55:55.485Z,13.57
2022-12-14T14:58:37.957Z,12.43
2022-12-14T15:01:21.919Z,12.00
2022-12-14T15:03:51.788Z,11.37
2022-12-14T15:06:23.510Z,11.20
2022-12-14T15:08:57.358Z,10.80
2022-12-14T15:11:34.382Z,17.10
2022-12-14T15:14:10.819Z,12.97
2022-12-14T15:16:45.660Z,13.53
2022-12-14T15:19:30.339Z,15.43
2022-12-14T15:22:02.526Z,14.40
2022-12-14T15:24:38.908Z,17.53
2022-12-14T15:27:32.611Z,14.03
2022-12-14T15:30:11.535Z,13.30
2022-12-14T15:32:44.326Z,12.93
2022-12-14T15:35:18.630Z,12.77
2022-12-14T15:37:49.013Z,16.73
2022-12-14T15:40:22.581Z,12.13
2022-12-14T15:43:15.232Z,14.63
2022-12-14T15:45:44.536Z,15.87
2022-12-14T15:48:24.944Z,13.40
2022-12-14T15:51:01.203Z,18.77
2022-12-14T15:53:42.234Z,21.07
2022-12-14T15:56:29.935Z,18.57
2022-12-14T15:58:58.932Z,13.37
2022-12-14T16:01:40.474Z,13.67
2022-12-14T16:04:13.321Z,12.87
2022-12-14T16:06:44.441Z,15.53
2022-12-14T16:09:22.235Z,14.13
2022-12-14T16:11:55.745Z,14.93
2022-12-14T16:14:32.098Z,17.80
2022-12-14T16:16:59.631Z,16.73
2022-12-14T16:19:44.979Z,19.07
2022-12-14T16:22:23.301Z,18.73
2022-12-14T16:25:19.078Z,17.27
2022-12-14T16:27:49.916Z,16.67
2022-12-14T16:30:34.765Z,17.97
2022-12-14T16:33:19.898Z,18.90
2022-12-14T16:35:57.730Z,20.47
2022-12-14T16:38:24.665Z,15.47
2022-12-14T16:40:58.599Z,14.63
2022-12-14T16:43:31.574Z,16.73
2022-12-14T16:46:04.906Z,17.87
2022-12-14T16:48:37.606Z,15.37
2022-12-14T16:51:28.557Z,16.83
2022-12-14T16:54:06.377Z,16.00
2022-12-14T16:56:44.922Z,15.73
2022-12-14T16:59:28.095Z,13.07
2022-12-14T17:01:55.681Z,17.83
2022-12-14T17:04:23.217Z,18.67
2022-12-14T17:06:56.686Z,15.90
2022-12-14T17:09:25.921Z,20.63
2022-12-14T17:12:02.119Z,17.70
2022-12-14T17:14:28.888Z,15.93
2022-12-14T17:17:05.561Z,18.27
2022-12-14T17:19:36.334Z,15.10
2022-12-14T17:22:05.145Z,22.50
2022-12-14T17:24:32.773Z,28.40
2022-12-14T17:27:01.572Z,21.47
2022-12-14T17:29:33.422Z,21.97
2022-12-14T17:32:02.726Z,22.50
2022-12-14T17:34:30.224Z,19.33
2022-12-14T17:36:57.428Z,18.90
2022-12-14T17:39:25.023Z,20.53
2022-12-14T17:41:52.171Z,19.90
2022-12-14T17:44:20.308Z,21.90
2022-12-14T17:46:49.883Z,21.10
2022-12-14T17:49:36.335Z,21.90
2022-12-14T17:52:04.890Z,22.13
2022-12-14T17:54:32.348Z,23.70
2022-12-14T17:56:59.798Z,20.70
2022-12-14T17:59:26.758Z,23.07
2022-12-14T18:01:53.653Z,20.13
2022-12-14T18:04:20.522Z,18.40
2022-12-14T18:06:47.404Z,28.70
2022-12-14T18:09:16.053Z,21.73
2022-12-14T18:12:00.537Z,25.63
2022-12-14T18:14:29.623Z,24.77
2022-12-14T18:17:01.175Z,23.03
2022-12-14T18:19:29.811Z,20.87
2022-12-14T18:22:04.078Z,24.47
2022-12-14T18:24:30.864Z,19.77
2022-12-14T18:26:57.714Z,21.67
2022-12-14T18:29:24.912Z,20.27
2022-12-14T18:31:52.287Z,21.10
2022-12-14T18:34:19.063Z,19.83
2022-12-14T18:36:45.816Z,20.93
2022-12-14T18:39:12.645Z,18.57
2022-12-14T18:41:39.592Z,23.43
2022-12-14T18:44:06.364Z,23.00
2022-12-14T18:46:33.281Z,22.67
2022-12-14T18:49:02.795Z,20.00
2022-12-14T18:51:29.594Z,19.90
2022-12-14T18:53:58.230Z,22.33
2022-12-14T18:56:28.052Z,19.23
2022-12-14T18:58:56.155Z,20.77
2022-12-14T19:01:24.917Z,23.17
2022-12-14T19:03:54.751Z,23.30
2022-12-14T19:09:11.023Z,20.80
2022-12-14T19:11:41.682Z,19.53
2022-12-14T19:14:08.488Z,22.47
2022-12-14T19:16:35.317Z,19.70
2022-12-14T19:19:02.277Z,21.13
2022-12-14T19:21:31.090Z,25.27
2022-12-14T19:24:00.831Z,23.67
2022-12-14T19:26:28.699Z,27.13
2022-12-14T19:28:55.607Z,28.50
2022-12-14T19:31:23.069Z,25.67
2022-12-14T19:33:49.962Z,26.33
2022-12-14T19:36:16.901Z,26.23
2022-12-14T19:38:45.015Z,23.77
2022-12-14T19:41:17.773Z,23.93
2022-12-14T19:43:44.691Z,20.47
2022-12-14T19:46:12.964Z,26.13
2022-12-14T19:48:40.424Z,20.87
2022-12-14T19:51:14.238Z,23.33
2022-12-14T19:53:42.931Z,18.33
2022-12-14T19:56:10.552Z,21.37
2022-12-14T19:58:37.290Z,19.93
2022-12-14T20:01:09.077Z,19.30
2022-12-14T20:03:38.962Z,23.87
2022-12-14T20:06:06.851Z,22.27
2022-12-14T20:08:34.792Z,30.10
2022-12-14T20:11:11.735Z,34.30
2022-12-14T20:13:38.561Z,29.63
2022-12-14T20:16:06.000Z,24.40
2022-12-14T20:18:32.994Z,25.47
2022-12-14T20:21:07.008Z,22.13
2022-12-14T20:23:39.690Z,26.50
2022-12-14T20:26:16.540Z,23.23
2022-12-14T20:28:43.500Z,25.83
2022-12-14T20:31:10.874Z,27.23
2022-12-14T20:33:38.954Z,27.07
2022-12-14T20:36:06.406Z,23.33
2022-12-14T20:38:33.627Z,25.30
2022-12-14T20:41:12.348Z,31.80
2022-12-14T20:43:42.268Z,24.17
2022-12-14T20:46:27.688Z,26.03
2022-12-14T20:48:54.970Z,23.70
2022-12-14T20:51:21.835Z,23.70
2022-12-14T20:53:49.491Z,20.17
2022-12-14T20:56:16.429Z,24.97
2022-12-14T20:58:47.560Z,23.00
2022-12-14T21:01:15.535Z,23.53
2022-12-14T21:03:42.722Z,24.23
2022-12-14T21:06:16.651Z,24.90
2022-12-14T21:09:04.919Z,22.47
2022-12-14T21:11:52.094Z,21.63
2022-12-14T21:14:20.271Z,24.23
2022-12-14T21:16:47.606Z,22.27
2022-12-14T21:19:15.907Z,25.07
2022-12-14T21:21:46.833Z,24.30
2022-12-14T21:24:37.427Z,24.77
2022-12-14T21:27:06.273Z,21.67
2022-12-14T21:29:33.266Z,26.50
2022-12-14T21:32:00.467Z,27.43
2022-12-14T21:34:28.164Z,30.07
2022-12-14T21:36:54.998Z,25.23
2022-12-14T21:39:24.080Z,23.70
2022-12-14T21:42:09.683Z,26.50
2022-12-14T21:44:37.515Z,24.37
2022-12-14T21:47:06.888Z,27.67
2022-12-14T21:49:36.794Z,26.23
2022-12-14T21:52:07.300Z,21.87
2022-12-14T21:54:34.888Z,23.43
2022-12-14T21:57:20.151Z,29.63
2022-12-14T21:59:47.100Z,27.57
2022-12-14T22:02:19.634Z,23.40
2022-12-14T22:04:46.759Z,29.50
2022-12-14T22:07:24.813Z,26.13
2022-12-14T22:09:51.604Z,25.53
2022-12-14T22:12:18.529Z,25.60
2022-12-14T22:14:45.353Z,23.17
2022-12-14T22:17:13.574Z,30.13
2022-12-14T22:19:40.640Z,26.53
2022-12-14T22:22:07.795Z,24.33
2022-12-14T22:24:37.574Z,23.83
2022-12-14T22:27:04.240Z,20.83
2022-12-14T22:29:30.928Z,22.80
2022-12-14T22:31:57.741Z,18.20
2022-12-14T22:34:24.630Z,22.73
2022-12-14T22:36:52.560Z,22.67
2022-12-14T22:39:19.764Z,22.67
2022-12-14T22:41:48.564Z,26.63
2022-12-14T22:44:15.415Z,24.40
2022-12-14T22:46:42.171Z,24.57
2022-12-14T22:49:09.894Z,26.63
2022-12-14T22:51:36.768Z,23.70
2022-12-14T22:54:03.687Z,24.33
2022-12-14T22:56:43.060Z,22.23
2022-12-14T22:59:18.208Z,18.57
2022-12-14T23:01:50.128Z,20.90
2022-12-14T23:04:18.477Z,22.40
2022-12-14T23:06:45.582Z,21.73
2022-12-14T23:09:31.302Z,22.03
2022-12-14T23:12:21.476Z,19.67
2022-12-14T23:15:07.688Z,17.53
2022-12-14T23:17:53.589Z,21.37
2022-12-14T23:20:38.841Z,22.60
2022-12-14T23:23:25.579Z,20.63
2022-12-14T23:26:11.051Z,21.60
2022-12-14T23:28:56.749Z,19.30
2022-12-14T23:31:42.449Z,21.80
2022-12-14T23:34:28.212Z,20.80
2022-12-14T23:37:18.140Z,21.93
2022-12-14T23:40:05.619Z,22.33
2022-12-14T23:42:53.348Z,22.07
2022-12-14T23:45:38.782Z,22.90
2022-12-14T23:48:24.199Z,22.60
2022-12-14T23:51:10.485Z,25.97
2022-12-14T23:53:55.874Z,20.33
2022-12-14T23:56:41.642Z,20.30
2022-12-14T23:59:32.060Z,22.73
